tititudorancea.com
Station Historical Data
Daily Summary for August 25, 2018 Units:  Metric    English   Both
« Previous Day
Next Day »
Daily Weekly Monthly Yearly Custom
  High: Low: Average:
Temperature: -17.8 °C -0.6 °C 6.4 °C
Dew Point: -17.8 °C -1.6 °C 4.6 °C
Humidity: Humidity % 69 % 88 %
Wind Speed: 0 km/h 0 km/h 5.3 km/h
Wind Gust: 0 km/h - -
Wind:- - South
Pressure: 0 hPa 1017.8 hPa -
Precipitation: 0.2 mm    
Historical Graphs
 
 
Ararat weather Find more about Weather in Ararat, AU


 



 


Tabular Data for August 25, 2018
Time Temperature Dew Point Pressure Wind Wind Speed Wind Gust Humidity Rainfall Rate (Hourly)
-17.8 °C -17.8 °C 0 hPa Calm     Humidity % 0 mm
00:04 4.9 °C 3.6 °C 1022.6 hPa Calm     91 % 0 mm
00:09 4.8 °C 3.4 °C 1022.6 hPa Calm     91 % 0 mm
00:14 4.6 °C 3.3 °C 1022.6 hPa Calm     91 % 0 mm
00:19 4.6 °C 3.4 °C 1022.6 hPa North 3.7 km/h 1.3 km/h 92 % 0 mm
00:24 4.5 °C 3.3 °C 1022.6 hPa Calm     92 % 0 mm
00:29 4.5 °C 3.3 °C 1022.6 hPa South 3.7 km/h 0.6 km/h 92 % 0 mm
00:34 4.2 °C 2.9 °C 1022.6 hPa North 3.7 km/h 1.1 km/h 91 % 0 mm
00:39 4 °C 2.8 °C 1022.6 hPa Calm     92 % 0 mm
00:44 3.7 °C 2.6 °C 1022.6 hPa North 3.7 km/h 1.9 km/h 92 % 0 mm
00:49 3.7 °C 2.5 °C 1022.2 hPa South 1.9 km/h   92 % 0 mm
00:54 3.6 °C 2.4 °C 1022.2 hPa Calm     92 % 0 mm
00:59 3.4 °C 2.2 °C 1022.2 hPa Calm     92 % 0 mm
01:04 3.2 °C 1.8 °C 1022.2 hPa Calm     91 % 0 mm
01:09 3 °C 1.8 °C 1022.2 hPa Calm     92 % 0 mm
01:14 2.9 °C 1.8 °C 1022.2 hPa Calm     92 % 0 mm
01:19 2.9 °C 1.7 °C 1022.2 hPa Calm     92 % 0 mm
01:24 2.8 °C 1.8 °C 1022.2 hPa Calm     93 % 0 mm
01:29 2.8 °C 1.6 °C 1022.2 hPa Calm     92 % 0 mm
01:34 2.7 °C 1.6 °C 1022.2 hPa Calm     92 % 0 mm
01:39 2.7 °C 1.7 °C 1022.2 hPa Calm     93 % 0 mm
01:44 2.7 °C 1.7 °C 1021.9 hPa Calm     93 % 0 mm
01:49 2.6 °C 1.6 °C 1021.9 hPa Calm     93 % 0 mm
01:54 2.6 °C 1.6 °C 1021.9 hPa Calm     93 % 0 mm
01:59 2.5 °C 1.3 °C 1021.9 hPa Calm     92 % 0 mm
02:04 2.4 °C 1.4 °C 1021.9 hPa Calm     93 % 0 mm
02:09 2.3 °C 1.3 °C 1021.9 hPa Calm     93 % 0 mm
02:14 2.2 °C 1.2 °C 1021.6 hPa Calm     93 % 0 mm
02:19 2.3 °C 1.4 °C 1021.6 hPa Calm     94 % 0 mm
02:24 2.3 °C 1.3 °C 1021.6 hPa Calm     93 % 0 mm
02:29 2.2 °C 1.2 °C 1021.6 hPa Calm     93 % 0 mm
02:34 2.2 °C 1.2 °C 1021.6 hPa Calm     93 % 0 mm
02:39 2 °C 1 °C 1021.6 hPa Calm     93 % 0 mm
02:44 1.8 °C 0.8 °C 1021.2 hPa Calm     93 % 0 mm
02:49 1.7 °C 0.7 °C 1021.2 hPa Calm     93 % 0 mm
02:54 1.6 °C 0.6 °C 1021.2 hPa Calm     93 % 0 mm
02:59 1.6 °C 0.6 °C 1021.2 hPa Calm     93 % 0 mm
03:04 1.4 °C 0.4 °C 1021.2 hPa Calm     93 % 0 mm
03:09 1.4 °C 0.4 °C 1021.2 hPa Calm     93 % 0 mm
03:14 1.4 °C 0.4 °C 1021.2 hPa Calm     93 % 0 mm
03:19 1.4 °C 0.4 °C 1021.2 hPa Calm     93 % 0 mm
03:24 1.4 °C 0.6 °C 1020.9 hPa Calm     94 % 0 mm
03:29 1.4 °C 0.6 °C 1021.2 hPa Calm     94 % 0 mm
03:34 1.3 °C 0.3 °C 1021.2 hPa Calm     93 % 0 mm
03:39 1.2 °C 0.2 °C 1020.9 hPa Calm     93 % 0 mm
03:44 1.2 °C 0.2 °C 1020.9 hPa Calm     93 % 0 mm
03:49 1.1 °C 0.1 °C 1020.9 hPa Calm     93 % 0 mm
03:54 1 °C 0 °C 1020.9 hPa Calm     93 % 0 mm
03:59 0.9 °C -0.1 °C 1020.9 hPa Calm     93 % 0 mm
04:04 0.8 °C -0.2 °C 1020.9 hPa Calm     93 % 0 mm
04:09 0.7 °C -0.3 °C 1020.9 hPa Calm     93 % 0 mm
04:14 0.6 °C -0.4 °C 1020.9 hPa Calm     93 % 0 mm
04:19 0.4 °C -0.6 °C 1020.9 hPa Calm     93 % 0 mm
04:24 0.3 °C -0.7 °C 1020.9 hPa Calm     93 % 0 mm
04:29 0.2 °C -0.8 °C 1020.9 hPa Calm     93 % 0 mm
04:34 0.2 °C -0.8 °C 1020.9 hPa Calm     93 % 0 mm
04:39 0.1 °C -0.7 °C 1020.9 hPa Calm     94 % 0 mm
04:44 0.1 °C -0.9 °C 1020.9 hPa Calm     93 % 0 mm
04:49 0 °C -1 °C 1020.9 hPa Calm     93 % 0 mm
04:54 -0.1 °C -0.9 °C 1020.9 hPa Calm     94 % 0 mm
04:59 -0.1 °C -0.9 °C 1020.9 hPa Calm     94 % 0 mm
05:04 -0.1 °C -0.9 °C 1020.9 hPa Calm     94 % 0 mm
05:09 -0.1 °C -0.9 °C 1020.9 hPa Calm     94 % 0 mm
05:14 -0.2 °C -1 °C 1021.2 hPa Calm     94 % 0 mm
05:19 -0.2 °C -1.2 °C 1020.9 hPa Calm     93 % 0 mm
05:24 -0.3 °C -1.3 °C 1021.2 hPa Calm     93 % 0 mm
05:29 -0.3 °C -1.3 °C 1021.2 hPa Calm     93 % 0 mm
05:34 -0.4 °C -1.4 °C 1021.2 hPa Calm     93 % 0 mm
05:39 -0.5 °C -1.5 °C 1021.2 hPa Calm     93 % 0 mm
05:44 -0.6 °C -1.6 °C 1021.2 hPa Calm     93 % 0 mm
05:49 -0.6 °C -1.6 °C 1021.2 hPa Calm     93 % 0 mm
05:54 -0.6 °C -1.4 °C 1021.2 hPa Calm     94 % 0 mm
05:59 -0.6 °C -1.4 °C 1021.2 hPa Calm     94 % 0 mm
06:04 -0.4 °C -1.3 °C 1021.2 hPa Calm     94 % 0 mm
06:09 -0.4 °C -1.2 °C 1021.2 hPa Calm     94 % 0 mm
06:14 -0.3 °C -1.2 °C 1021.2 hPa Calm     94 % 0 mm
06:19 -0.3 °C -1.1 °C 1021.2 hPa Calm     94 % 0 mm
06:24 -0.3 °C -1.1 °C 1021.6 hPa Calm     94 % 0 mm
06:29 -0.2 °C -1 °C 1021.6 hPa Calm     94 % 0 mm
06:34 0 °C -0.7 °C 1021.6 hPa Calm     95 % 0 mm
06:39 0.1 °C -0.7 °C 1021.6 hPa Calm     94 % 0 mm
06:44 0.1 °C -0.7 °C 1021.6 hPa Calm     94 % 0 mm
06:49 0 °C -0.8 °C 1021.6 hPa Calm     94 % 0 mm
06:54 -0.1 °C -0.1 °C 1021.6 hPa Calm     100 % 0 mm
06:59 -0.2 °C -1 °C 1021.6 hPa Calm     94 % 0 mm
07:04 -0.2 °C -1.1 °C 1021.6 hPa Calm     94 % 0 mm
07:09 -0.3 °C -1.1 °C 1021.6 hPa Calm     94 % 0 mm
07:14 -0.3 °C -1.1 °C 1021.6 hPa Calm     94 % 0 mm
07:19 -0.3 °C -1.1 °C 1021.6 hPa Calm     94 % 0 mm
07:24 -0.2 °C -1.1 °C 1021.9 hPa Calm     94 % 0 mm
07:29 -0.1 °C -0.8 °C 1021.9 hPa Calm     95 % 0 mm
07:34 -0.1 °C -0.8 °C 1021.9 hPa Calm     95 % 0 mm
07:39 0.1 °C -0.7 °C 1021.9 hPa Calm     95 % 0 mm
07:44 0.2 °C -0.6 °C 1021.9 hPa Calm     95 % 0 mm
07:49 0.3 °C -0.4 °C 1021.9 hPa Calm     95 % 0 mm
07:54 0.7 °C 0 °C 1021.9 hPa Calm     95 % 0 mm
07:59 1.2 °C 0.7 °C 1021.9 hPa Calm     96 % 0 mm
08:04 1.6 °C 1.1 °C 1021.9 hPa Calm     96 % 0 mm
08:09 1.7 °C 1 °C 1022.2 hPa Calm     95 % 0 mm
08:14 1.7 °C 1 °C 1022.2 hPa South 3.7 km/h 1.3 km/h 95 % 0 mm
08:19 1.8 °C 1.1 °C 1021.9 hPa South 5.6 km/h 2.6 km/h 95 % 0 mm
08:24 1.9 °C 1.2 °C 1022.2 hPa South 1.9 km/h 0.2 km/h 95 % 0 mm
08:29 2 °C 1.3 °C 1022.2 hPa South 1.9 km/h 1.9 km/h 95 % 0 mm
08:34 2.3 °C 1.6 °C 1022.2 hPa South 7.4 km/h 1.8 km/h 95 % 0 mm
08:39 2.8 °C 2.2 °C 1022.2 hPa South 5.6 km/h 1.9 km/h 96 % 0 mm
08:44 3.4 °C 2.8 °C 1022.2 hPa South 9.7 km/h 9.3 km/h 96 % 0 mm
08:49 3.8 °C 3.3 °C 1021.9 hPa North 7.4 km/h 3.1 km/h 96 % 0 mm
08:54 4.2 °C 3.6 °C 1021.9 hPa South 3.7 km/h 1.9 km/h 96 % 0 mm
08:59 4.5 °C 3.9 °C 1021.9 hPa South 7.4 km/h 2.4 km/h 96 % 0 mm
09:04 4.8 °C 4.2 °C 1021.9 hPa South 7.4 km/h 6.1 km/h 96 % 0 mm
09:09 5 °C 4.4 °C 1021.9 hPa South 7.4 km/h 6.3 km/h 96 % 0 mm
09:14 5.3 °C 4.7 °C 1021.9 hPa South 9.3 km/h 5.1 km/h 96 % 0 mm
09:19 5.5 °C 4.9 °C 1021.9 hPa South 6.4 km/h 3.5 km/h 96 % 0 mm
09:24 5.8 °C 5.2 °C 1021.9 hPa South 7.4 km/h 5.1 km/h 96 % 0 mm
09:29 5.8 °C 5.2 °C 1021.9 hPa South 8 km/h 4.5 km/h 96 % 0 mm
09:34 5.7 °C 5 °C 1021.6 hPa South 11.1 km/h 9.3 km/h 95 % 0 mm
09:39 5.6 °C 4.8 °C 1021.6 hPa South 11.1 km/h 7.1 km/h 95 % 0 mm
09:44 5.5 °C 4.8 °C 1021.6 hPa South 9.3 km/h 6 km/h 95 % 0 mm
09:49 5.7 °C 5.1 °C 1021.6 hPa South 7.4 km/h 4.7 km/h 96 % 0 mm
09:54 5.7 °C 5 °C 1021.6 hPa South 7.4 km/h 5.1 km/h 95 % 0 mm
09:59 5.7 °C 5.1 °C 1021.6 hPa North 11.3 km/h 5.6 km/h 96 % 0 mm
10:04 5.7 °C 4.9 °C 1021.6 hPa South 9.7 km/h 6.9 km/h 95 % 0 mm
10:09 5.6 °C 4.9 °C 1021.6 hPa South 11.3 km/h 10 km/h 95 % 0 mm
10:14 5.7 °C 4.9 °C 1021.6 hPa South 9.3 km/h 7.7 km/h 95 % 0 mm
10:24 5.9 °C 5.3 °C 1021.2 hPa South 11.3 km/h 8.9 km/h 96 % 0 mm
10:29 6.2 °C 5.6 °C 1021.2 hPa South 9.3 km/h 6.3 km/h 96 % 0 mm
10:34 6.3 °C 5.7 °C 1021.2 hPa South 8 km/h 5.6 km/h 96 % 0 mm
10:39 6.5 °C 5.9 °C 1021.2 hPa South 13 km/h 6 km/h 96 % 0 mm
10:44 6.8 °C 6.2 °C 1021.2 hPa South 11.1 km/h 8.5 km/h 96 % 0 mm
10:49 7 °C 6.4 °C 1021.2 hPa South 5.6 km/h 1.3 km/h 96 % 0 mm
10:54 7.2 °C 6.6 °C 1021.2 hPa South 9.3 km/h 6.1 km/h 96 % 0 mm
10:59 7.1 °C 6.4 °C 1021.2 hPa South 7.4 km/h 6.3 km/h 96 % 0 mm
11:04 7.4 °C 6.8 °C 1020.9 hPa South 11.1 km/h 11.1 km/h 96 % 0 mm
11:09 7.4 °C 7.4 °C 1020.9 hPa South 14.8 km/h 10.9 km/h 100 % 0 mm
11:14 7.6 °C 7 °C 1020.9 hPa South 11.1 km/h 6 km/h 96 % 0 mm
11:19 7.6 °C 6.9 °C 1020.9 hPa South 11.1 km/h 7.2 km/h 96 % 0 mm
11:24 7.9 °C 7.3 °C 1020.9 hPa South 9.3 km/h 4.3 km/h 96 % 0 mm
11:29 8.1 °C 7.5 °C 1020.9 hPa South 11.3 km/h 7.1 km/h 96 % 0 mm
11:34 8.2 °C 7.6 °C 1020.9 hPa South 14.8 km/h 11.6 km/h 96 % 0 mm
11:39 8.2 °C 7.6 °C 1020.9 hPa South 13 km/h 7.9 km/h 96 % 0 mm
11:44 8.5 °C 7.9 °C 1020.5 hPa South 13 km/h 11.3 km/h 96 % 0 mm
11:49 8.7 °C 7.9 °C 1020.5 hPa South 11.1 km/h 10 km/h 95 % 0 mm
11:54 8.9 °C 8.1 °C 1020.5 hPa South 11.3 km/h 10.9 km/h 95 % 0 mm
11:59 9 °C 8.2 °C 1020.5 hPa South 11.1 km/h 9.2 km/h 95 % 0 mm
12:04 9.3 °C 8.4 °C 1020.5 hPa South 13 km/h 9.3 km/h 94 % 0 mm
12:09 9.6 °C 8.7 °C 1020.5 hPa South 11.3 km/h 7.9 km/h 94 % 0 mm
12:14 9.9 °C 8.7 °C 1020.5 hPa South 14.8 km/h 10.1 km/h 92 % 0 mm
12:19 10.3 °C 8.9 °C 1020.2 hPa South 16.7 km/h 11.9 km/h 91 % 0 mm
12:24 10.4 °C 8.7 °C 1019.9 hPa South 11.1 km/h 8.5 km/h 89 % 0 mm
12:29 10.7 °C 8.8 °C 1019.9 hPa South 13 km/h 8.4 km/h 88 % 0 mm
12:34 10.9 °C 8.8 °C 1019.9 hPa South 9.7 km/h 10.3 km/h 87 % 0 mm
12:39 11 °C 8.7 °C 1019.9 hPa South 9.3 km/h 4.3 km/h 86 % 0 mm
12:44 11.3 °C 8.7 °C 1019.5 hPa South 14.8 km/h 9.3 km/h 84 % 0 mm
12:49 11.4 °C 8.8 °C 1019.5 hPa South 9.3 km/h 7.9 km/h 84 % 0 mm
12:54 11.4 °C 8.4 °C 1019.5 hPa South 13 km/h 10.5 km/h 82 % 0 mm
12:59 11.4 °C 8.4 °C 1019.2 hPa South 11.1 km/h 8.9 km/h 82 % 0 mm
13:04 11.4 °C 8.2 °C 1019.2 hPa South 13 km/h 7.1 km/h 81 % 0 mm
13:09 11.8 °C 8.8 °C 1018.8 hPa South 11.1 km/h 7.2 km/h 82 % 0 mm
13:14 12.1 °C 8.8 °C 1018.8 hPa South 11.1 km/h 5.3 km/h 80 % 0 mm
13:19 12.2 °C 8.6 °C 1018.8 hPa South 8 km/h 6.3 km/h 79 % 0 mm
13:24 12.1 °C 8.4 °C 1018.8 hPa South 7.4 km/h 3.5 km/h 78 % 0 mm
13:29 12.2 °C 8.7 °C 1018.8 hPa South 9.3 km/h 7.7 km/h 79 % 0 mm
13:34 12.4 °C 8.7 °C 1018.8 hPa South 11.3 km/h 10.9 km/h 78 % 0 mm
13:39 12.7 °C 8.6 °C 1018.8 hPa South 11.1 km/h 9.3 km/h 76 % 0 mm
13:44 12.7 °C 8.8 °C 1018.8 hPa South 5.6 km/h 6.9 km/h 77 % 0 mm
13:49 12.8 °C 8.5 °C 1018.5 hPa South 14.8 km/h 10.6 km/h 75 % 0 mm
13:54 12.9 °C 8.4 °C 1018.5 hPa South 14.8 km/h 10.3 km/h 74 % 0 mm
13:59 12.8 °C 8.4 °C 1018.5 hPa South 14.8 km/h 8.4 km/h 75 % 0 mm
14:04 12.9 °C 8.4 °C 1018.5 hPa South 13 km/h 9.7 km/h 74 % 0 mm
14:09 13.1 °C 8.7 °C 1018.2 hPa South 11.1 km/h 5 km/h 75 % 0 mm
14:14 13.3 °C 8.7 °C 1018.2 hPa South 9.7 km/h 7.9 km/h 74 % 0 mm
14:19 13.4 °C 8.7 °C 1018.2 hPa South 14.5 km/h 11.4 km/h 73 % 0 mm
14:24 13.2 °C 8.2 °C 1018.2 hPa South 11.3 km/h 10.3 km/h 72 % 0 mm
14:29 13.2 °C 8 °C 1018.2 hPa South 14.8 km/h 12.4 km/h 71 % 0 mm
14:34 13.1 °C 8.2 °C 1018.2 hPa South 13 km/h 10.9 km/h 72 % 0 mm
14:39 13.1 °C 7.6 °C 1018.2 hPa South 11.1 km/h 6.9 km/h 69 % 0 mm
14:44 13.2 °C 8.3 °C 1018.2 hPa South 14.8 km/h 7.2 km/h 72 % 0 mm
14:49 13.2 °C 7.9 °C 1018.2 hPa South 9.3 km/h 6.6 km/h 70 % 0 mm
14:54 13.3 °C 7.9 °C 1018.2 hPa South 11.3 km/h 8.2 km/h 70 % 0 mm
14:59 13.3 °C 7.7 °C 1017.8 hPa South 13 km/h 10.9 km/h 69 % 0 mm
15:04 13.4 °C 8 °C 1017.8 hPa South 14.5 km/h 8.7 km/h 70 % 0 mm
15:09 13.3 °C 8 °C 1017.8 hPa South 9.3 km/h 8.4 km/h 70 % 0 mm
15:14 13.3 °C 8.2 °C 1017.8 hPa South 16.7 km/h 9.7 km/h 71 % 0 mm
15:19 13.4 °C 8.5 °C 1017.8 hPa South 11.1 km/h 9 km/h 72 % 0 mm
15:24 13.5 °C 8.1 °C 1017.8 hPa South 13 km/h 9 km/h 70 % 0 mm
15:29 13.4 °C 7.8 °C 1017.8 hPa South 14.5 km/h 9.2 km/h 69 % 0 mm
15:34 13.3 °C 7.9 °C 1018.2 hPa South 13 km/h 10.5 km/h 70 % 0 mm
15:39 13.2 °C 7.9 °C 1017.8 hPa South 14.8 km/h 10.5 km/h 70 % 0 mm
15:44 13.2 °C 7.8 °C 1017.8 hPa South 14.8 km/h 7.6 km/h 70 % 0 mm
15:49 13.3 °C 8.3 °C 1017.8 hPa South 14.8 km/h 9.8 km/h 72 % 0 mm
15:54 13.2 °C 8.3 °C 1017.8 hPa South 9.3 km/h 8.2 km/h 72 % 0 mm
15:59 13.3 °C 8.3 °C 1017.8 hPa South 11.3 km/h 9.7 km/h 72 % 0 mm
16:04 13.3 °C 8.6 °C 1017.8 hPa South 11.1 km/h 9.7 km/h 73 % 0 mm
16:09 13.3 °C 8.3 °C 1017.8 hPa South 11.3 km/h 11.9 km/h 72 % 0 mm
16:14 13.2 °C 8.2 °C 1017.8 hPa South 9.7 km/h 7.1 km/h 72 % 0 mm
16:19 13.2 °C 8.3 °C 1017.8 hPa South 16.1 km/h 9.2 km/h 72 % 0 mm
16:24 13.2 °C 8.3 °C 1017.8 hPa South 13 km/h 6.9 km/h 72 % 0 mm
16:29 13.2 °C 8.2 °C 1018.2 hPa South 16.7 km/h 8.9 km/h 72 % 0 mm
16:34 13.2 °C 8.2 °C 1018.2 hPa South 18.5 km/h 11.1 km/h 72 % 0 mm
16:39 13 °C 8.3 °C 1018.2 hPa South 14.8 km/h 8.4 km/h 73 % 0 mm
16:44 13.1 °C 8.3 °C 1018.2 hPa South 13 km/h 9.8 km/h 73 % 0 mm
16:49 13.1 °C 8.3 °C 1018.2 hPa South 14.8 km/h 11.9 km/h 73 % 0 mm
16:54 13.1 °C 8.5 °C 1018.2 hPa South 9.3 km/h 6.4 km/h 74 % 0 mm
16:59 13.1 °C 8.6 °C 1018.2 hPa South 13 km/h 9.8 km/h 74 % 0 mm
17:04 13 °C 8.4 °C 1018.2 hPa South 7.4 km/h 7.6 km/h 74 % 0 mm
17:09 13 °C 8.7 °C 1018.2 hPa South 13 km/h 8 km/h 75 % 0 mm
17:14 12.9 °C 8.6 °C 1018.2 hPa South 11.1 km/h 6 km/h 75 % 0 mm
17:19 12.9 °C 8.6 °C 1017.8 hPa South 6.4 km/h 3.4 km/h 75 % 0 mm
17:24 12.9 °C 8.8 °C 1017.8 hPa South 9.3 km/h 1.8 km/h 76 % 0 mm
17:29 12.8 °C 8.7 °C 1017.8 hPa South 8 km/h 4.8 km/h 76 % 0 mm
17:34 12.7 °C 8.8 °C 1018.2 hPa South 3.7 km/h 2.6 km/h 77 % 0 mm
17:39 12.6 °C 8.9 °C 1018.2 hPa South 5.6 km/h 2.3 km/h 78 % 0 mm
17:44 12.5 °C 8.8 °C 1018.2 hPa South 7.4 km/h 3.9 km/h 78 % 0 mm
17:49 12.3 °C 8.7 °C 1017.8 hPa South 5.6 km/h 2.4 km/h 79 % 0 mm
17:54 12.1 °C 8.7 °C 1018.2 hPa South 6.4 km/h 2.1 km/h 80 % 0 mm
17:59 11.8 °C 8.5 °C 1018.2 hPa South 5.6 km/h 3.2 km/h 80 % 0 mm
18:04 11.6 °C 8.4 °C 1018.2 hPa South 5.6 km/h 1.6 km/h 81 % 0 mm
18:09 11.3 °C 8.4 °C 1018.2 hPa South 5.6 km/h 3.2 km/h 82 % 0 mm
18:14 11.1 °C 8.3 °C 1018.2 hPa South 3.7 km/h 2.7 km/h 83 % 0 mm
18:19 10.9 °C 8.2 °C 1018.2 hPa South 1.9 km/h 1.3 km/h 83 % 0 mm
18:24 10.7 °C 7.9 °C 1018.2 hPa South 3.7 km/h 1 km/h 83 % 0 mm
18:29 10.5 °C 7.9 °C 1018.2 hPa South 5.6 km/h 2.4 km/h 84 % 0 mm
18:34 10.3 °C 7.9 °C 1018.2 hPa South 1.9 km/h 0.2 km/h 85 % 0 mm
18:39 10.2 °C 7.8 °C 1018.2 hPa South 3.7 km/h 1 km/h 85 % 0 mm
18:44 10 °C 7.8 °C 1018.2 hPa South 3.7 km/h 1.4 km/h 86 % 0 mm
18:49 9.9 °C 7.7 °C 1018.2 hPa South 3.7 km/h 1.8 km/h 86 % 0 mm
18:54 9.7 °C 7.7 °C 1018.2 hPa South 5.6 km/h 2.9 km/h 87 % 0 mm
18:59 9.6 °C 7.6 °C 1018.5 hPa South 6.4 km/h 3.4 km/h 87 % 0 mm
19:04 9.6 °C 7.7 °C 1018.5 hPa North 5.6 km/h 2.7 km/h 88 % 0 mm
19:09 9.5 °C 7.6 °C 1018.5 hPa South 3.7 km/h 1.9 km/h 88 % 0 mm
19:14 9.4 °C 7.5 °C 1018.5 hPa North 3.7 km/h 2.1 km/h 88 % 0 mm
19:19 9.2 °C 7.3 °C 1018.5 hPa North 3.7 km/h 1.4 km/h 88 % 0 mm
19:24 9.1 °C 7.2 °C 1018.5 hPa South 3.7 km/h 2.3 km/h 88 % 0 mm
19:29 8.8 °C 7.1 °C 1018.5 hPa North 3.7 km/h 1.6 km/h 89 % 0 mm
19:34 8.8 °C 7.1 °C 1018.5 hPa South 5.6 km/h 1.8 km/h 89 % 0 mm
19:39 8.6 °C 6.9 °C 1018.5 hPa South 5.6 km/h 2.4 km/h 89 % 0 mm
19:44 8.5 °C 6.9 °C 1018.5 hPa South 5.6 km/h 3.1 km/h 90 % 0 mm
19:49 8.4 °C 6.7 °C 1018.8 hPa South 3.7 km/h 3.9 km/h 89 % 0 mm
19:54 8.3 °C 6.7 °C 1018.8 hPa South 5.6 km/h 5 km/h 90 % 0 mm
19:59 8.3 °C 6.7 °C 1018.8 hPa South 6.4 km/h 4.7 km/h 90 % 0 mm
20:04 8.3 °C 6.7 °C 1018.8 hPa South 6.4 km/h 5.6 km/h 90 % 0 mm
20:09 8.2 °C 6.7 °C 1018.8 hPa South 7.4 km/h 6.9 km/h 90 % 0 mm
20:14 8.2 °C 6.6 °C 1018.8 hPa South 5.6 km/h 3.2 km/h 90 % 0 mm
20:19 8.1 °C 6.5 °C 1018.8 hPa South 3.7 km/h 3.1 km/h 90 % 0 mm
20:24 7.9 °C 6.4 °C 1018.8 hPa South 6.4 km/h 3.9 km/h 90 % 0 mm
20:29 7.8 °C 6.2 °C 1018.8 hPa South 6.4 km/h 3.9 km/h 90 % 0 mm
20:34 7.7 °C 6.3 °C 1018.8 hPa South 7.4 km/h 6.1 km/h 91 % 0 mm
20:39 7.7 °C 6.3 °C 1018.8 hPa South 7.4 km/h 6.1 km/h 91 % 0 mm
20:44 7.8 °C 6.6 °C 1018.8 hPa South 7.4 km/h 5.6 km/h 92 % 0 mm
20:49 7.9 °C 6.7 °C 1018.8 hPa South 8 km/h 6.9 km/h 92 % 0 mm
20:54 7.9 °C 6.7 °C 1018.8 hPa South 8 km/h 6.9 km/h 92 % 0 mm
20:59 7.9 °C 6.7 °C 1018.8 hPa South 5.6 km/h 4.2 km/h 92 % 0 mm
21:04 7.9 °C 6.7 °C 1018.8 hPa South 6.4 km/h 4.5 km/h 92 % 0 mm
21:06 7.8 °C 6.6 °C 1018.8 hPa South 8 km/h 4.5 km/h 92 % 0 mm
21:34 7.7 °C 6.5 °C 1019.2 hPa South 5.6 km/h 5.6 km/h 92 % 0 mm
21:39 7.6 °C 6.4 °C 1019.2 hPa South 1.9 km/h   92 % 0 mm
21:44 7.4 °C 6.2 °C 1019.2 hPa Calm     92 % 0 mm
21:49 7.2 °C 6 °C 1019.2 hPa Calm     92 % 0 mm
21:54 7.1 °C 5.8 °C 1019.2 hPa Calm     92 % 0.2 mm
21:59 6.9 °C 5.7 °C 1019.2 hPa Calm     92 % 0.2 mm
22:04 6.7 °C 5.5 °C 1018.8 hPa Calm     92 % 0.2 mm
22:09 6.6 °C 5.4 °C 1018.8 hPa Calm     92 % 0.2 mm
22:14 6.6 °C 5.5 °C 1018.8 hPa Calm     93 % 0.2 mm
22:19 6.5 °C 5.4 °C 1018.8 hPa Calm     93 % 0.2 mm
22:24 6.2 °C 4.9 °C 1018.8 hPa Calm     92 % 0.2 mm
22:29 6.1 °C 5 °C 1018.8 hPa Calm     93 % 0.2 mm
22:34 6.2 °C 5.3 °C 1018.8 hPa Calm     94 % 0.2 mm
22:39 6.4 °C 5.5 °C 1018.8 hPa Calm     94 % 0.2 mm
22:44 6.4 °C 5.6 °C 1018.8 hPa Calm     94 % 0.2 mm
22:49 6.6 °C 5.7 °C 1018.8 hPa Calm     94 % 0.2 mm
22:54 6.7 °C 5.8 °C 1018.8 hPa Calm     94 % 0 mm
22:59 6.8 °C 6.1 °C 1018.8 hPa Calm     95 % 0 mm
23:04 6.9 °C 6.1 °C 1018.8 hPa Calm     94 % 0 mm
23:09 7.1 °C 6.2 °C 1018.8 hPa Calm     94 % 0 mm
23:14 7.3 °C 6.6 °C 1018.8 hPa South 6.4 km/h 5.5 km/h 95 % 0 mm
23:19 7.4 °C 6.6 °C 1018.8 hPa South 3.7 km/h 2.7 km/h 94 % 0 mm
23:24 7.5 °C 6.8 °C 1018.8 hPa South 1.9 km/h 1 km/h 95 % 0 mm
23:25 7.5 °C 6.8 °C 1018.8 hPa Calm   1 km/h 95 % 0 mm
23:54 7.4 °C 6.5 °C 1018.5 hPa South 1.6 km/h 2.4 km/h 94 % 0 mm
23:59 7.2 °C 6.3 °C 1018.5 hPa South 3.7 km/h 1.9 km/h 94 % 0 mm
Ararat Weather
Compliments of Weather Underground - 2.25 mb
Click here to send mail.


ABOUT

Live weather data from Ararat, Victoria, Australia, 3377
Data uploaded from Cumulus every 5 minutes to Weather Underground.
This site then downloads the raw data for formatting and display.
Metric and imperial data can be displayed. Graphs and historical data available.
Includes Sun and Moon times and rain image live from BOM.

Check out Ararat Weather on Facebook, Twitter and Google +

Help support ongoing costs by checking out the ads





Follow @AraratWeather